createdAt,value
2023-02-15T00:00:12.321Z,2.80
2023-02-15T00:02:15.481Z,2.79
2023-02-15T00:04:20.831Z,2.77
2023-02-15T00:06:25.321Z,2.75
2023-02-15T00:08:28.429Z,2.77
2023-02-15T00:10:31.654Z,2.76
2023-02-15T00:12:34.797Z,2.72
2023-02-15T00:14:37.863Z,2.70
2023-02-15T00:16:41.563Z,2.66
2023-02-15T00:18:44.698Z,2.61
2023-02-15T00:20:47.772Z,2.53
2023-02-15T00:22:52.300Z,2.48
2023-02-15T00:24:55.532Z,2.46
2023-02-15T00:26:58.788Z,2.50
2023-02-15T00:29:02.234Z,2.46
2023-02-15T00:31:07.124Z,2.42
2023-02-15T00:33:12.267Z,2.39
2023-02-15T00:35:17.322Z,2.34
2023-02-15T00:37:20.549Z,2.37
2023-02-15T00:39:26.586Z,2.37
2023-02-15T00:41:29.797Z,2.36
2023-02-15T00:43:33.737Z,2.34
2023-02-15T00:45:39.354Z,2.38
2023-02-15T00:47:42.656Z,2.40
2023-02-15T00:49:46.149Z,2.38
2023-02-15T00:51:49.298Z,2.39
2023-02-15T00:53:52.557Z,2.39
2023-02-15T00:55:57.093Z,2.38
2023-02-15T00:58:00.172Z,2.34
2023-02-15T01:00:03.243Z,2.32
2023-02-15T01:02:06.627Z,2.30
2023-02-15T01:04:09.804Z,2.27
2023-02-15T01:06:13.195Z,2.21
2023-02-15T01:08:16.625Z,2.19
2023-02-15T01:10:20.121Z,2.18
2023-02-15T01:12:24.722Z,2.20
2023-02-15T01:14:27.837Z,2.19
2023-02-15T01:16:31.109Z,2.16
2023-02-15T01:18:36.325Z,2.17
2023-02-15T01:20:42.517Z,2.14
2023-02-15T01:22:45.712Z,2.14
2023-02-15T01:24:51.133Z,2.14
2023-02-15T01:26:54.199Z,2.14
2023-02-15T01:28:58.640Z,2.11
2023-02-15T01:31:01.859Z,2.07
2023-02-15T01:33:05.226Z,2.07
2023-02-15T01:35:09.144Z,2.07
2023-02-15T01:37:12.280Z,2.09
2023-02-15T01:39:15.890Z,2.07
2023-02-15T01:41:23.861Z,2.06
2023-02-15T01:43:41.908Z,2.07
2023-02-15T01:45:48.781Z,2.08
2023-02-15T01:47:55.473Z,2.08
2023-02-15T01:50:05.799Z,2.08
2023-02-15T01:52:09.666Z,2.05
2023-02-15T01:54:19.895Z,2.02
2023-02-15T01:56:25.781Z,1.97
2023-02-15T01:58:30.553Z,1.98
2023-02-15T02:00:34.246Z,1.97
2023-02-15T02:02:39.108Z,1.93
2023-02-15T02:04:45.950Z,1.94
2023-02-15T02:06:50.646Z,1.95
2023-02-15T02:08:54.050Z,1.92
2023-02-15T02:10:57.221Z,1.90
2023-02-15T02:13:02.495Z,1.89
2023-02-15T02:15:07.110Z,1.88
2023-02-15T02:17:16.774Z,1.85
2023-02-15T02:19:46.557Z,1.85
2023-02-15T02:22:29.479Z,1.83
2023-02-15T02:24:59.347Z,1.81
2023-02-15T02:27:19.124Z,1.83
2023-02-15T02:29:58.010Z,1.81
2023-02-15T02:32:18.942Z,1.83
2023-02-15T02:34:27.977Z,1.80
2023-02-15T02:36:37.393Z,1.78
2023-02-15T02:38:52.452Z,1.75
2023-02-15T02:41:01.797Z,1.75
2023-02-15T02:43:10.221Z,1.75
2023-02-15T02:45:18.344Z,1.73
2023-02-15T02:47:25.027Z,1.68
2023-02-15T02:49:37.143Z,1.57
2023-02-15T02:51:40.187Z,1.51
2023-02-15T02:53:43.482Z,1.49
2023-02-15T02:55:49.369Z,1.51
2023-02-15T02:57:56.171Z,1.49
2023-02-15T03:00:01.630Z,1.48
2023-02-15T03:02:08.925Z,1.45
2023-02-15T03:04:17.062Z,1.46
2023-02-15T03:06:29.097Z,1.49
2023-02-15T03:08:35.592Z,1.47
2023-02-15T03:10:40.657Z,1.44
2023-02-15T03:12:43.991Z,1.46
2023-02-15T03:14:51.018Z,1.46
2023-02-15T03:16:54.579Z,1.43
2023-02-15T03:18:59.834Z,1.44
2023-02-15T03:21:07.881Z,1.46
2023-02-15T03:23:17.713Z,1.48
2023-02-15T03:25:23.686Z,1.51
2023-02-15T03:27:34.559Z,1.56
2023-02-15T03:29:39.399Z,1.54
2023-02-15T03:31:44.336Z,1.51
2023-02-15T03:33:54.717Z,1.39
2023-02-15T03:36:06.349Z,1.29
2023-02-15T03:38:10.839Z,1.18
2023-02-15T03:40:37.827Z,1.18
2023-02-15T03:42:41.621Z,1.11
2023-02-15T03:44:52.286Z,0.96
2023-02-15T03:46:58.745Z,0.89
2023-02-15T03:49:05.763Z,0.84
2023-02-15T03:51:29.347Z,0.76
2023-02-15T03:53:32.474Z,0.73
2023-02-15T03:55:37.446Z,0.81
2023-02-15T03:58:13.017Z,0.81
2023-02-15T04:00:45.062Z,0.86
2023-02-15T04:03:09.444Z,0.87
2023-02-15T04:05:12.552Z,0.89
2023-02-15T04:07:15.770Z,0.89
2023-02-15T04:09:36.539Z,0.82
2023-02-15T04:11:40.982Z,0.80
2023-02-15T04:13:44.140Z,0.75
2023-02-15T04:16:05.249Z,0.76
2023-02-15T04:18:09.949Z,0.79
2023-02-15T04:20:30.905Z,0.80
2023-02-15T04:22:51.448Z,0.82
2023-02-15T04:25:13.398Z,0.80
2023-02-15T04:27:17.932Z,0.78
2023-02-15T04:29:21.359Z,0.79
2023-02-15T04:31:24.657Z,0.79
2023-02-15T04:33:27.977Z,0.81
2023-02-15T04:35:32.616Z,0.79
2023-02-15T04:37:35.886Z,0.70
2023-02-15T04:39:39.563Z,0.65
2023-02-15T04:41:42.826Z,0.65
2023-02-15T04:43:47.407Z,0.69
2023-02-15T04:45:51.602Z,0.73
2023-02-15T04:47:54.944Z,0.74
2023-02-15T04:49:58.330Z,0.79
2023-02-15T04:52:01.530Z,0.81
2023-02-15T04:54:04.721Z,0.83
2023-02-15T04:56:08.128Z,0.82
2023-02-15T04:58:11.402Z,0.83
2023-02-15T05:00:17.688Z,0.85
2023-02-15T05:02:21.417Z,0.83
2023-02-15T05:04:24.915Z,0.82
2023-02-15T05:06:30.665Z,0.80
2023-02-15T05:08:34.582Z,0.76
2023-02-15T05:10:37.645Z,0.68
2023-02-15T05:12:40.721Z,0.63
2023-02-15T05:14:43.859Z,0.61
2023-02-15T05:16:48.588Z,0.61
2023-02-15T05:18:51.694Z,0.57
2023-02-15T05:20:54.848Z,0.50
2023-02-15T05:22:58.427Z,0.43
2023-02-15T05:25:19.741Z,0.48
2023-02-15T05:27:42.494Z,0.48
2023-02-15T05:29:45.653Z,0.44
2023-02-15T05:31:50.366Z,0.42
2023-02-15T05:33:53.598Z,0.44
2023-02-15T05:35:56.782Z,0.48
2023-02-15T05:38:00.019Z,0.48
2023-02-15T05:40:03.447Z,0.52
2023-02-15T05:42:06.704Z,0.55
2023-02-15T05:44:09.934Z,0.54
2023-02-15T05:46:14.167Z,0.51
2023-02-15T05:48:19.556Z,0.48
2023-02-15T05:50:22.701Z,0.46
2023-02-15T05:52:26.257Z,0.42
2023-02-15T05:54:30.157Z,0.40
2023-02-15T05:56:33.363Z,0.41
2023-02-15T05:58:38.626Z,0.39
2023-02-15T06:00:41.805Z,0.36
2023-02-15T06:02:45.007Z,0.30
2023-02-15T06:04:49.650Z,0.29
2023-02-15T06:06:52.890Z,0.33
2023-02-15T06:08:56.051Z,0.30
2023-02-15T06:10:59.308Z,0.27
2023-02-15T06:13:02.318Z,0.28
2023-02-15T06:15:05.791Z,0.31
2023-02-15T06:17:08.958Z,0.34
2023-02-15T06:19:12.167Z,0.35
2023-02-15T06:21:16.792Z,0.31
2023-02-15T06:23:19.974Z,0.31
2023-02-15T06:25:23.176Z,0.23
2023-02-15T06:27:26.324Z,0.19
2023-02-15T06:29:29.376Z,0.17
2023-02-15T06:31:32.676Z,0.16
2023-02-15T06:33:36.072Z,0.15
2023-02-15T06:35:39.225Z,0.14
2023-02-15T06:37:44.064Z,0.11
2023-02-15T06:39:47.327Z,0.12
2023-02-15T06:41:50.505Z,0.13
2023-02-15T06:43:53.915Z,0.16
2023-02-15T06:45:57.131Z,0.15
2023-02-15T06:48:00.355Z,0.17
2023-02-15T06:50:03.601Z,0.19
2023-02-15T06:52:07.199Z,0.26
2023-02-15T06:54:11.756Z,0.34
2023-02-15T06:56:15.344Z,0.49
2023-02-15T06:58:18.706Z,0.64
2023-02-15T07:00:23.418Z,0.80
2023-02-15T07:02:27.044Z,0.95
2023-02-15T07:04:31.136Z,1.10
2023-02-15T07:06:36.288Z,1.14
2023-02-15T07:08:40.638Z,1.19
2023-02-15T07:10:46.893Z,1.26
2023-02-15T07:12:49.065Z,1.39
2023-02-15T07:14:52.297Z,1.46
2023-02-15T07:16:55.664Z,1.57
2023-02-15T07:18:58.838Z,1.65
2023-02-15T07:21:02.461Z,1.69
2023-02-15T07:23:05.945Z,1.74
2023-02-15T07:25:11.064Z,1.88
2023-02-15T07:27:15.715Z,1.98
2023-02-15T07:29:18.954Z,2.05
2023-02-15T07:31:22.184Z,2.12
2023-02-15T07:33:25.518Z,2.17
2023-02-15T07:35:28.879Z,2.23
2023-02-15T07:37:32.054Z,2.31
2023-02-15T07:39:35.309Z,2.39
2023-02-15T07:41:38.519Z,2.48
2023-02-15T07:43:49.497Z,2.59
2023-02-15T07:45:52.700Z,2.62
2023-02-15T07:47:55.834Z,2.67
2023-02-15T07:49:59.138Z,2.77
2023-02-15T07:52:03.394Z,2.88
2023-02-15T07:54:06.644Z,3.01
2023-02-15T07:56:13.311Z,3.12
2023-02-15T07:58:16.419Z,3.20
2023-02-15T08:00:24.447Z,3.34
2023-02-15T08:02:27.763Z,3.45
2023-02-15T08:04:30.916Z,3.55
2023-02-15T08:06:36.135Z,3.67
2023-02-15T08:08:39.402Z,3.80
2023-02-15T08:10:59.882Z,3.92
2023-02-15T08:13:02.998Z,4.03
2023-02-15T08:15:07.170Z,4.12
2023-02-15T08:17:12.853Z,4.22
2023-02-15T08:19:19.588Z,4.31
2023-02-15T08:21:25.001Z,4.43
2023-02-15T08:23:28.662Z,4.56
2023-02-15T08:25:31.910Z,4.62
2023-02-15T08:27:35.040Z,4.69
2023-02-15T08:29:40.528Z,4.76
2023-02-15T08:31:44.161Z,4.84
2023-02-15T08:33:50.508Z,4.91
2023-02-15T08:35:53.675Z,5.00
2023-02-15T08:37:56.716Z,5.07
2023-02-15T08:39:59.870Z,5.09
2023-02-15T08:42:03.280Z,5.21
2023-02-15T08:44:08.430Z,5.32
2023-02-15T08:46:12.632Z,5.41
2023-02-15T08:48:15.686Z,5.45
2023-02-15T08:50:20.581Z,5.51
2023-02-15T08:52:23.761Z,5.54
2023-02-15T08:54:27.036Z,5.62
2023-02-15T08:56:32.786Z,5.75
2023-02-15T08:58:36.334Z,5.83
2023-02-15T09:00:39.340Z,5.93
2023-02-15T09:02:42.398Z,6.06
2023-02-15T09:04:45.577Z,6.16
2023-02-15T09:06:51.186Z,6.23
2023-02-15T09:08:55.140Z,6.30
2023-02-15T09:11:07.705Z,6.37
2023-02-15T09:13:10.797Z,6.36
2023-02-15T09:15:13.935Z,6.38
2023-02-15T09:17:17.036Z,6.45
2023-02-15T09:19:21.537Z,6.56
2023-02-15T09:21:25.622Z,6.59
2023-02-15T09:23:30.215Z,6.67
2023-02-15T09:25:33.633Z,6.74
2023-02-15T09:27:37.512Z,6.71
2023-02-15T09:29:41.010Z,6.74
2023-02-15T09:31:46.330Z,6.83
2023-02-15T09:33:50.410Z,6.94
2023-02-15T09:35:53.550Z,7.09
2023-02-15T09:37:56.644Z,7.15
2023-02-15T09:40:01.196Z,7.23
2023-02-15T09:42:18.620Z,7.33
2023-02-15T09:44:29.863Z,7.31
2023-02-15T09:46:46.429Z,7.42
2023-02-15T09:48:53.175Z,7.48
2023-02-15T09:51:04.937Z,7.54
2023-02-15T09:53:30.811Z,7.66
2023-02-15T09:55:42.755Z,7.75
2023-02-15T09:57:52.475Z,7.90
2023-02-15T10:00:03.088Z,8.06
2023-02-15T10:02:30.473Z,8.15
2023-02-15T10:04:45.427Z,8.31
2023-02-15T10:06:57.955Z,8.43
2023-02-15T10:09:07.966Z,8.47
2023-02-15T10:11:35.504Z,8.41
2023-02-15T10:13:45.662Z,8.47
2023-02-15T10:15:58.371Z,8.64
2023-02-15T10:18:11.624Z,8.77
2023-02-15T10:20:24.868Z,8.89
2023-02-15T10:22:37.980Z,8.95
2023-02-15T10:25:02.799Z,9.08
2023-02-15T10:27:14.194Z,9.11
2023-02-15T10:29:25.174Z,9.25
2023-02-15T10:31:30.327Z,9.37
2023-02-15T10:33:40.836Z,9.43
2023-02-15T10:35:49.737Z,9.49
2023-02-15T10:38:06.726Z,9.54
2023-02-15T10:40:14.380Z,9.69
2023-02-15T10:42:24.451Z,9.81
2023-02-15T10:44:43.836Z,9.91
2023-02-15T10:46:58.314Z,10.01
2023-02-15T10:49:21.397Z,10.13
2023-02-15T10:51:32.914Z,10.20
2023-02-15T10:53:48.270Z,10.19
2023-02-15T10:55:57.892Z,10.23
2023-02-15T10:58:11.411Z,10.31
2023-02-15T11:00:16.708Z,10.30
2023-02-15T11:02:24.608Z,10.20
2023-02-15T11:04:48.121Z,10.15
2023-02-15T11:06:54.374Z,10.23
2023-02-15T11:09:10.766Z,10.35
2023-02-15T11:11:18.453Z,10.48
2023-02-15T11:13:25.060Z,10.50
2023-02-15T11:15:32.995Z,10.60
2023-02-15T11:17:38.122Z,10.68
2023-02-15T11:19:45.087Z,10.75
2023-02-15T11:21:51.497Z,10.82
2023-02-15T11:23:54.949Z,10.82
2023-02-15T11:26:00.206Z,10.86
2023-02-15T11:28:06.540Z,10.93
2023-02-15T11:30:16.014Z,10.91
2023-02-15T11:32:22.674Z,10.96
2023-02-15T11:34:31.656Z,11.00
2023-02-15T11:36:36.366Z,11.07
2023-02-15T11:38:40.732Z,11.13
2023-02-15T11:40:49.838Z,11.23
2023-02-15T11:42:56.039Z,11.25
2023-02-15T11:45:02.268Z,11.29
2023-02-15T11:47:12.658Z,11.32
2023-02-15T11:49:25.930Z,11.37
2023-02-15T11:51:30.164Z,11.37
2023-02-15T11:53:35.729Z,11.36
2023-02-15T11:55:38.934Z,11.40
2023-02-15T11:57:44.688Z,11.41
2023-02-15T11:59:51.223Z,11.40
2023-02-15T12:01:54.355Z,11.44
2023-02-15T12:04:00.837Z,11.50
2023-02-15T12:06:06.358Z,11.54
2023-02-15T12:08:16.064Z,11.55
2023-02-15T12:10:22.984Z,11.56
2023-02-15T12:12:27.908Z,11.53
2023-02-15T12:14:49.268Z,11.55
2023-02-15T12:16:54.017Z,11.60
2023-02-15T12:19:01.063Z,11.63
2023-02-15T12:21:07.890Z,11.65
2023-02-15T12:23:15.311Z,11.69
2023-02-15T12:25:24.772Z,11.70
2023-02-15T12:27:30.663Z,11.69
2023-02-15T12:29:38.210Z,11.72
2023-02-15T12:31:43.233Z,11.67
2023-02-15T12:33:47.532Z,11.66
2023-02-15T12:35:58.546Z,11.71
2023-02-15T12:38:05.457Z,11.68
2023-02-15T12:40:22.205Z,11.73
2023-02-15T12:42:26.394Z,11.76
2023-02-15T12:44:30.573Z,11.80
2023-02-15T12:46:37.901Z,11.76
2023-02-15T12:48:41.325Z,11.81
2023-02-15T12:50:46.052Z,11.83
2023-02-15T12:52:52.257Z,11.82
2023-02-15T12:54:55.471Z,11.83
2023-02-15T12:56:59.526Z,11.87
2023-02-15T12:59:07.567Z,11.88
2023-02-15T13:01:15.252Z,11.89
2023-02-15T13:03:20.956Z,11.93
2023-02-15T13:05:28.444Z,11.93
2023-02-15T13:07:33.685Z,11.91
2023-02-15T13:09:40.827Z,11.90
2023-02-15T13:11:44.794Z,11.94
2023-02-15T13:13:53.708Z,11.96
2023-02-15T13:16:00.310Z,11.94
2023-02-15T13:18:05.073Z,11.97
2023-02-15T13:20:16.065Z,11.97
2023-02-15T13:22:22.004Z,11.98
2023-02-15T13:24:26.801Z,12.04
2023-02-15T13:26:33.216Z,12.04
2023-02-15T13:28:42.145Z,12.05
2023-02-15T13:30:48.482Z,12.06
2023-02-15T13:32:54.054Z,12.06
2023-02-15T13:34:58.960Z,12.10
2023-02-15T13:37:06.611Z,12.13
2023-02-15T13:39:20.656Z,12.14
2023-02-15T13:41:28.381Z,12.15
2023-02-15T13:43:43.363Z,12.18
2023-02-15T13:45:57.847Z,12.21
2023-02-15T13:48:05.471Z,12.26
2023-02-15T13:50:23.033Z,12.27
2023-02-15T13:52:27.871Z,12.29
2023-02-15T13:54:38.487Z,12.32
2023-02-15T13:56:49.953Z,12.32
2023-02-15T13:59:07.145Z,12.34
2023-02-15T14:01:11.964Z,12.37
2023-02-15T14:03:37.476Z,12.42
2023-02-15T14:05:52.669Z,12.43
2023-02-15T14:08:02.358Z,12.43
2023-02-15T14:10:21.661Z,12.46
2023-02-15T14:12:49.265Z,12.47
2023-02-15T14:15:08.832Z,12.50
2023-02-15T14:17:19.741Z,12.54
2023-02-15T14:19:30.290Z,12.58
2023-02-15T14:21:34.584Z,12.58
2023-02-15T14:23:46.423Z,12.60
2023-02-15T14:25:52.412Z,12.62
2023-02-15T14:27:59.726Z,12.60
2023-02-15T14:30:07.670Z,12.60
2023-02-15T14:32:14.382Z,12.61
2023-02-15T14:34:24.122Z,12.62
2023-02-15T14:36:31.326Z,12.61
2023-02-15T14:38:45.453Z,12.62
2023-02-15T14:41:05.080Z,12.63
2023-02-15T14:43:12.080Z,12.63
2023-02-15T14:45:21.740Z,12.62
2023-02-15T14:47:29.060Z,12.58
2023-02-15T14:49:33.962Z,12.56
2023-02-15T14:51:57.787Z,12.55
2023-02-15T14:54:01.043Z,12.52
2023-02-15T14:56:23.136Z,12.49
2023-02-15T14:58:26.355Z,12.47
2023-02-15T15:00:40.844Z,12.41
2023-02-15T15:02:49.446Z,12.38
2023-02-15T15:04:59.739Z,12.35
2023-02-15T15:07:10.029Z,12.36
2023-02-15T15:09:14.880Z,12.34
2023-02-15T15:11:44.207Z,12.34
2023-02-15T15:13:57.889Z,12.36
2023-02-15T15:16:30.654Z,12.37
2023-02-15T15:18:46.914Z,12.35
2023-02-15T15:20:52.333Z,12.29
2023-02-15T15:23:41.473Z,12.22
2023-02-15T15:25:47.091Z,12.19
2023-02-15T15:27:56.127Z,12.18
2023-02-15T15:30:00.915Z,12.16
2023-02-15T15:32:09.892Z,12.10
2023-02-15T15:34:39.256Z,12.08
2023-02-15T15:37:15.618Z,12.12
2023-02-15T15:39:30.786Z,12.09
2023-02-15T15:41:43.681Z,12.05
2023-02-15T15:44:32.479Z,12.05
2023-02-15T15:47:10.510Z,12.04
2023-02-15T15:49:17.899Z,12.00
2023-02-15T15:51:28.626Z,11.99
2023-02-15T15:53:34.627Z,11.99
2023-02-15T15:55:38.024Z,11.94
2023-02-15T15:57:43.520Z,11.94
2023-02-15T15:59:47.931Z,11.91
2023-02-15T16:01:51.152Z,11.85
2023-02-15T16:03:57.680Z,11.81
2023-02-15T16:06:02.482Z,11.77
2023-02-15T16:08:06.539Z,11.77
2023-02-15T16:10:23.239Z,11.74
2023-02-15T16:12:27.756Z,11.70
2023-02-15T16:14:33.069Z,11.65
2023-02-15T16:16:36.386Z,11.58
2023-02-15T16:18:43.350Z,11.52
2023-02-15T16:20:53.970Z,11.46
2023-02-15T16:23:09.343Z,11.38
2023-02-15T16:25:33.996Z,11.30
2023-02-15T16:27:38.841Z,11.24
2023-02-15T16:29:42.903Z,11.14
2023-02-15T16:31:46.320Z,11.07
2023-02-15T16:33:50.046Z,10.99
2023-02-15T16:35:59.396Z,10.92
2023-02-15T16:38:02.721Z,10.84
2023-02-15T16:40:07.095Z,10.76
2023-02-15T16:42:10.632Z,10.70
2023-02-15T16:44:22.542Z,10.63
2023-02-15T16:46:29.204Z,10.55
2023-02-15T16:48:44.708Z,10.45
2023-02-15T16:50:53.676Z,10.38
2023-02-15T16:53:03.828Z,10.32
2023-02-15T16:55:23.000Z,10.24
2023-02-15T16:57:29.808Z,10.18
2023-02-15T16:59:36.572Z,10.12
2023-02-15T17:01:39.782Z,10.07
2023-02-15T17:03:44.732Z,9.99
2023-02-15T17:05:50.448Z,9.93
2023-02-15T17:08:09.111Z,9.85
2023-02-15T17:10:28.058Z,9.81
2023-02-15T17:12:49.906Z,9.73
2023-02-15T17:14:57.572Z,9.65
2023-02-15T17:17:08.079Z,9.54
2023-02-15T17:19:15.997Z,9.44
2023-02-15T17:21:21.695Z,9.38
2023-02-15T17:23:33.416Z,9.37
2023-02-15T17:25:41.165Z,9.33
2023-02-15T17:27:44.457Z,9.31
2023-02-15T17:29:49.504Z,9.29
2023-02-15T17:31:53.720Z,9.25
2023-02-15T17:33:59.503Z,9.26
2023-02-15T17:36:10.907Z,9.21
2023-02-15T17:38:20.205Z,9.17
2023-02-15T17:40:29.724Z,9.08
2023-02-15T17:42:33.056Z,9.06
2023-02-15T17:44:36.270Z,9.04
2023-02-15T17:46:40.615Z,9.01
2023-02-15T17:48:43.932Z,8.97
2023-02-15T17:50:47.056Z,8.92
2023-02-15T17:52:50.686Z,8.88
2023-02-15T17:55:11.166Z,8.82
2023-02-15T17:57:17.077Z,8.75
2023-02-15T17:59:20.415Z,8.67
2023-02-15T18:01:41.566Z,8.59
2023-02-15T18:04:04.429Z,8.48
2023-02-15T18:06:25.458Z,8.40
2023-02-15T18:08:47.158Z,8.36
2023-02-15T18:11:07.825Z,8.32
2023-02-15T18:13:15.131Z,8.27
2023-02-15T18:15:18.395Z,8.18
2023-02-15T18:17:25.206Z,8.09
2023-02-15T18:19:28.607Z,7.99
2023-02-15T18:21:32.306Z,7.93
2023-02-15T18:23:35.927Z,7.85
2023-02-15T18:25:39.616Z,7.79
2023-02-15T18:27:42.892Z,7.73
2023-02-15T18:29:48.644Z,7.67
2023-02-15T18:31:54.417Z,7.64
2023-02-15T18:34:00.078Z,7.58
2023-02-15T18:36:04.585Z,7.53
2023-02-15T18:38:10.154Z,7.50
2023-02-15T18:40:16.666Z,7.44
2023-02-15T18:42:22.463Z,7.34
2023-02-15T18:44:27.130Z,7.25
2023-02-15T18:46:31.587Z,7.18
2023-02-15T18:48:35.484Z,7.10
2023-02-15T18:50:39.432Z,7.05
2023-02-15T18:52:43.191Z,6.99
2023-02-15T18:54:46.747Z,6.94
2023-02-15T18:56:54.777Z,6.88
2023-02-15T18:58:58.078Z,6.82
2023-02-15T19:01:01.725Z,6.78
2023-02-15T19:03:06.677Z,6.73
2023-02-15T19:05:10.214Z,6.67
2023-02-15T19:07:18.668Z,6.63
2023-02-15T19:09:24.363Z,6.62
2023-02-15T19:11:29.668Z,6.53
2023-02-15T19:13:35.224Z,6.50
2023-02-15T19:15:40.533Z,6.46
2023-02-15T19:17:43.718Z,6.41
2023-02-15T19:19:48.742Z,6.41
2023-02-15T19:21:52.461Z,6.36
2023-02-15T19:23:58.045Z,6.33
2023-02-15T19:26:02.343Z,6.28
2023-02-15T19:28:10.554Z,6.22
2023-02-15T19:30:17.339Z,6.18
2023-02-15T19:32:20.696Z,6.13
2023-02-15T19:34:24.063Z,6.11
2023-02-15T19:36:28.926Z,6.09
2023-02-15T19:38:35.148Z,6.08
2023-02-15T19:40:38.416Z,6.04
2023-02-15T19:42:41.551Z,6.02
2023-02-15T19:44:44.699Z,5.98
2023-02-15T19:46:50.611Z,5.93
2023-02-15T19:48:55.282Z,5.88
2023-02-15T19:50:58.501Z,5.83
2023-02-15T19:53:03.538Z,5.79
2023-02-15T19:55:07.343Z,5.74
2023-02-15T19:57:12.271Z,5.76
2023-02-15T19:59:24.390Z,5.71
2023-02-15T20:01:28.585Z,5.69
2023-02-15T20:03:31.806Z,5.72
2023-02-15T20:05:38.415Z,5.69
2023-02-15T20:07:42.156Z,5.65
2023-02-15T20:09:47.289Z,5.60
2023-02-15T20:11:50.958Z,5.55
2023-02-15T20:13:54.157Z,5.50
2023-02-15T20:15:57.304Z,5.47
2023-02-15T20:18:03.666Z,5.51
2023-02-15T20:20:08.183Z,5.52
2023-02-15T20:22:22.024Z,5.51
2023-02-15T20:24:28.075Z,5.44
2023-02-15T20:26:33.075Z,5.46
2023-02-15T20:28:36.239Z,5.42
2023-02-15T20:30:39.444Z,5.35
2023-02-15T20:32:43.572Z,5.31
2023-02-15T20:34:47.080Z,5.30
2023-02-15T20:36:50.727Z,5.21
2023-02-15T20:38:56.513Z,5.18
2023-02-15T20:41:18.813Z,5.16
2023-02-15T20:43:23.597Z,5.15
2023-02-15T20:45:29.188Z,5.10
2023-02-15T20:47:35.694Z,5.05
2023-02-15T20:49:39.644Z,4.99
2023-02-15T20:51:44.681Z,4.96
2023-02-15T20:53:49.209Z,4.90
2023-02-15T20:55:52.594Z,4.88
2023-02-15T20:57:56.949Z,4.85
2023-02-15T21:00:01.882Z,4.83
2023-02-15T21:02:16.993Z,4.80
2023-02-15T21:04:23.902Z,4.80
2023-02-15T21:06:27.816Z,4.76
2023-02-15T21:08:31.454Z,4.75
2023-02-15T21:10:35.585Z,4.73
2023-02-15T21:12:38.887Z,4.73
2023-02-15T21:14:42.289Z,4.72
2023-02-15T21:16:51.510Z,4.73
2023-02-15T21:18:55.374Z,4.71
2023-02-15T21:21:00.485Z,4.69
2023-02-15T21:23:05.384Z,4.70
2023-02-15T21:25:11.462Z,4.69
2023-02-15T21:27:15.384Z,4.71
2023-02-15T21:29:19.181Z,4.70
2023-02-15T21:31:24.103Z,4.68
2023-02-15T21:33:29.704Z,4.68
2023-02-15T21:35:33.010Z,4.66
2023-02-15T21:37:38.901Z,4.65
2023-02-15T21:39:42.939Z,4.66
2023-02-15T21:42:05.419Z,4.67
2023-02-15T21:44:34.774Z,4.64
2023-02-15T21:46:56.528Z,4.61
2023-02-15T21:49:03.025Z,4.57
2023-02-15T21:51:25.062Z,4.51
2023-02-15T21:53:31.260Z,4.40
2023-02-15T21:55:34.941Z,4.31
2023-02-15T21:57:38.171Z,4.33
2023-02-15T21:59:42.521Z,4.31
2023-02-15T22:01:50.152Z,4.30
2023-02-15T22:03:55.606Z,4.32
2023-02-15T22:06:00.829Z,4.30
2023-02-15T22:08:05.051Z,4.30
2023-02-15T22:10:08.970Z,4.31
2023-02-15T22:12:16.453Z,4.26
2023-02-15T22:14:36.541Z,4.24
2023-02-15T22:16:39.816Z,4.24
2023-02-15T22:18:43.123Z,4.22
2023-02-15T22:20:46.300Z,4.21
2023-02-15T22:22:52.142Z,4.18
2023-02-15T22:24:55.295Z,4.17
2023-02-15T22:26:59.239Z,4.17
2023-02-15T22:29:02.484Z,4.11
2023-02-15T22:31:07.458Z,4.07
2023-02-15T22:33:22.346Z,4.03
2023-02-15T22:35:27.471Z,4.06
2023-02-15T22:37:30.553Z,4.06
2023-02-15T22:39:35.457Z,4.03
2023-02-15T22:41:38.673Z,4.04
2023-02-15T22:43:44.004Z,4.01
2023-02-15T22:45:47.197Z,3.96
2023-02-15T22:47:54.074Z,3.87
2023-02-15T22:49:57.278Z,3.78
2023-02-15T22:52:00.405Z,3.73
2023-02-15T22:54:03.804Z,3.67
2023-02-15T22:56:10.742Z,3.64
2023-02-15T22:58:18.106Z,3.66
2023-02-15T23:00:22.855Z,3.69
2023-02-15T23:02:26.141Z,3.66
2023-02-15T23:04:31.050Z,3.66
2023-02-15T23:06:35.380Z,3.68
2023-02-15T23:08:38.501Z,3.65
2023-02-15T23:10:42.886Z,3.65
2023-02-15T23:13:01.436Z,3.65
2023-02-15T23:15:04.706Z,3.66
2023-02-15T23:17:07.881Z,3.67
2023-02-15T23:19:13.584Z,3.67
2023-02-15T23:21:21.005Z,3.64
2023-02-15T23:23:29.309Z,3.65
2023-02-15T23:25:32.436Z,3.65
2023-02-15T23:27:53.241Z,3.59
2023-02-15T23:29:57.821Z,3.60
2023-02-15T23:32:01.054Z,3.55
2023-02-15T23:34:13.992Z,3.50
2023-02-15T23:36:32.114Z,3.45
2023-02-15T23:38:35.210Z,3.42
2023-02-15T23:40:55.846Z,3.42
2023-02-15T23:42:58.972Z,3.38
2023-02-15T23:45:03.934Z,3.33
2023-02-15T23:47:07.613Z,3.34
2023-02-15T23:49:15.731Z,3.31
2023-02-15T23:51:19.336Z,3.30
2023-02-15T23:53:22.402Z,3.31
2023-02-15T23:55:26.949Z,3.29
2023-02-15T23:57:30.054Z,3.30
2023-02-15T23:59:33.664Z,3.29
